Time;durP1;ratioP1;P1;durP2;ratioP2;P2;SDS_P1;SDS_P2;PMS_P1;PMS_P2;Temp;Humidity;BMP_temperature;BMP_pressure;BME280_temperature;BME280_humidity;BME280_pressure;Samples;Min_cycle;Max_cycle;Signal;HPM_P1;HPM_P2
2022/08/02 00:00:59;;;;;;;2.13;1.70;;;23.50;89.70;;;;;;5013865;28;20209;-25
2022/08/02 00:03:28;;;;;;;3.47;1.88;;;23.50;89.80;;;;;;5014964;28;20205;-25
2022/08/02 00:05:56;;;;;;;3.20;1.90;;;23.40;89.70;;;;;;5010438;28;20209;-29
2022/08/02 00:08:24;;;;;;;4.97;1.85;;;23.40;89.80;;;;;;5014437;28;20208;-30
2022/08/02 00:10:57;;;;;;;2.90;1.73;;;23.30;89.70;;;;;;5017181;28;20228;-30
2022/08/02 00:13:25;;;;;;;4.07;1.90;;;23.30;89.70;;;;;;5016675;28;20316;-29
2022/08/02 00:15:52;;;;;;;5.10;2.40;;;23.30;89.80;;;;;;5025863;28;20289;-31
2022/08/02 00:18:19;;;;;;;4.88;1.98;;;23.30;89.90;;;;;;5016476;28;20260;-30
2022/08/02 00:20:49;;;;;;;3.65;2.08;;;23.30;90.00;;;;;;5019644;28;20201;-30
2022/08/02 00:23:19;;;;;;;2.88;2.08;;;23.20;90.00;;;;;;5023646;28;20212;-29
2022/08/02 00:25:49;;;;;;;4.43;2.00;;;23.20;90.00;;;;;;5028834;28;20255;-30
2022/08/02 00:28:27;;;;;;;2.97;1.90;;;23.20;90.00;;;;;;5027277;28;20236;-29
2022/08/02 00:30:56;;;;;;;3.95;1.98;;;23.20;90.00;;;;;;5027204;28;20252;-30
2022/08/02 00:33:23;;;;;;;6.13;1.88;;;23.20;90.10;;;;;;5025232;28;20702;-30
2022/08/02 00:36:11;;;;;;;4.40;2.28;;;23.20;90.10;;;;;;5010023;28;20799;-30
2022/08/02 00:38:38;;;;;;;3.30;2.00;;;23.10;90.10;;;;;;5030806;28;20282;-25
2022/08/02 00:41:11;;;;;;;5.78;2.15;;;23.10;90.20;;;;;;5018048;28;20231;-25
2022/08/02 00:43:39;;;;;;;3.25;2.03;;;23.10;90.20;;;;;;5009925;28;20229;-25
2022/08/02 00:46:06;;;;;;;5.32;1.98;;;23.10;90.20;;;;;;5011219;28;20244;-25
2022/08/02 00:48:34;;;;;;;3.63;2.00;;;23.00;90.20;;;;;;5010212;28;20268;-25
2022/08/02 00:51:10;;;;;;;6.10;2.22;;;23.00;90.20;;;;;;5009877;28;20241;-26
2022/08/02 00:53:38;;;;;;;3.47;2.45;;;23.00;90.20;;;;;;5029142;28;20204;-25
2022/08/02 00:56:06;;;;;;;3.70;2.08;;;23.00;90.30;;;;;;5021363;28;20300;-24
2022/08/02 00:58:42;;;;;;;3.38;2.00;;;22.90;90.30;;;;;;5020454;28;20236;-25
2022/08/02 01:01:09;;;;;;;2.85;2.13;;;22.90;90.30;;;;;;5014957;28;20299;-25
2022/08/02 01:03:37;;;;;;;5.05;2.10;;;22.90;90.30;;;;;;5027174;28;20273;-25
2022/08/02 01:06:04;;;;;;;4.32;1.90;;;22.90;90.30;;;;;;5024837;28;20228;-25
2022/08/02 01:08:41;;;;;;;3.13;2.58;;;22.80;90.30;;;;;;5025161;28;20728;-25
2022/08/02 01:11:10;;;;;;;5.00;2.20;;;22.80;90.30;;;;;;5025724;28;20233;-25
2022/08/02 01:13:40;;;;;;;3.90;2.20;;;22.70;90.30;;;;;;5020106;28;20208;-25
2022/08/02 01:16:14;;;;;;;2.30;2.08;;;22.70;90.30;;;;;;5023508;28;20713;-25
2022/08/02 01:18:46;;;;;;;3.88;2.25;;;22.70;90.50;;;;;;5018383;28;20267;-26
2022/08/02 01:21:29;;;;;;;2.97;2.55;;;22.70;90.40;;;;;;5010719;28;20283;-25
2022/08/02 01:24:12;;;;;;;2.58;2.20;;;22.70;90.50;;;;;;5014171;28;20202;-25
2022/08/02 01:26:39;;;;;;;4.03;2.40;;;22.70;90.50;;;;;;5011284;28;20318;-25
2022/08/02 01:29:19;;;;;;;5.07;2.55;;;22.70;90.50;;;;;;5025429;28;20197;-30
2022/08/02 01:31:51;;;;;;;6.25;2.88;;;22.70;90.60;;;;;;5020077;28;20836;-29
2022/08/02 01:34:36;;;;;;;4.30;2.40;;;22.60;90.50;;;;;;5012463;28;20204;-29
2022/08/02 01:37:28;;;;;;;5.43;2.60;;;22.70;90.60;;;;;;5029046;28;20565;-29
2022/08/02 01:40:03;;;;;;;6.55;2.63;;;22.60;90.70;;;;;;5011146;28;20288;-28
2022/08/02 01:42:31;;;;;;;3.60;2.60;;;22.60;90.60;;;;;;5010488;28;20237;-29
2022/08/02 01:45:02;;;;;;;6.05;3.10;;;22.60;90.60;;;;;;5010391;28;20202;-29
2022/08/02 01:47:37;;;;;;;3.55;3.03;;;22.60;90.60;;;;;;5022433;28;20205;-29
2022/08/02 01:50:06;;;;;;;3.78;2.67;;;22.60;90.70;;;;;;5028270;28;20225;-29
2022/08/02 01:52:38;;;;;;;5.13;2.63;;;22.60;90.70;;;;;;5025652;28;20236;-29
2022/08/02 01:55:22;;;;;;;5.13;2.67;;;22.60;90.80;;;;;;5027787;28;20256;-29
2022/08/02 01:58:03;;;;;;;4.72;2.75;;;22.50;90.70;;;;;;5023434;28;20568;-28
2022/08/02 02:00:38;;;;;;;3.40;2.58;;;22.50;90.70;;;;;;5017902;28;21356;-28
2022/08/02 02:03:11;;;;;;;3.13;2.58;;;22.50;90.80;;;;;;5014873;28;20228;-29
2022/08/02 02:05:40;;;;;;;3.35;2.65;;;22.50;90.80;;;;;;5019301;28;20645;-29
2022/08/02 02:08:08;;;;;;;3.75;2.60;;;22.50;90.70;;;;;;5025080;28;20352;-28
2022/08/02 02:10:38;;;;;;;2.60;2.40;;;22.50;90.80;;;;;;5022152;28;20263;-29
2022/08/02 02:13:14;;;;;;;3.70;2.67;;;22.50;90.80;;;;;;5016160;28;20248;-29
2022/08/02 02:15:49;;;;;;;3.20;2.72;;;22.50;90.90;;;;;;5021630;28;20585;-29
2022/08/02 02:18:23;;;;;;;6.18;2.95;;;22.50;90.90;;;;;;5013448;28;20201;-29
2022/08/02 02:20:51;;;;;;;4.03;2.67;;;22.40;90.90;;;;;;5030119;28;20213;-29
2022/08/02 02:23:21;;;;;;;3.35;2.75;;;22.40;90.90;;;;;;5012517;28;20692;-29
2022/08/02 02:25:53;;;;;;;4.85;2.53;;;22.40;90.90;;;;;;5020161;28;20209;-29
2022/08/02 02:28:29;;;;;;;4.95;2.60;;;22.40;90.90;;;;;;5024268;28;20201;-29
2022/08/02 02:31:09;;;;;;;4.75;3.00;;;22.40;91.00;;;;;;5009014;28;20229;-29
2022/08/02 02:33:45;;;;;;;2.97;2.30;;;22.30;91.00;;;;;;5008813;28;20588;-29
2022/08/02 02:36:17;;;;;;;2.45;2.10;;;22.40;91.00;;;;;;5021733;28;20425;-29
2022/08/02 02:38:49;;;;;;;5.65;2.70;;;22.30;91.00;;;;;;5021413;28;20237;-29
2022/08/02 02:41:18;;;;;;;4.85;2.55;;;22.20;91.00;;;;;;5019681;28;20218;-29
2022/08/02 02:43:49;;;;;;;4.30;2.45;;;22.20;91.00;;;;;;5012105;28;20213;-29
2022/08/02 02:46:21;;;;;;;4.18;2.55;;;22.20;91.00;;;;;;5008997;28;20202;-29
2022/08/02 02:48:54;;;;;;;5.65;2.78;;;22.20;91.10;;;;;;5006361;28;20630;-29
2022/08/02 02:51:22;;;;;;;6.47;2.90;;;22.20;91.10;;;;;;5008771;28;20317;-29
2022/08/02 02:53:51;;;;;;;5.32;2.63;;;22.10;91.10;;;;;;5020727;28;20200;-29
2022/08/02 02:56:40;;;;;;;5.38;2.75;;;22.10;91.10;;;;;;5017346;28;20291;-29
2022/08/02 02:59:11;;;;;;;5.53;3.15;;;22.10;91.20;;;;;;5012756;28;20229;-29
2022/08/02 03:01:41;;;;;;;3.05;2.80;;;22.00;91.10;;;;;;5022974;28;20671;-29
2022/08/02 03:04:26;;;;;;;4.00;2.90;;;22.00;91.20;;;;;;5016103;28;20207;-29
2022/08/02 03:07:14;;;;;;;4.05;2.47;;;22.00;91.20;;;;;;5016766;28;20217;-28
2022/08/02 03:09:41;;;;;;;3.72;2.75;;;22.00;91.20;;;;;;5027537;28;20211;-29
2022/08/02 03:12:09;;;;;;;5.57;2.67;;;22.00;91.20;;;;;;5022458;28;20233;-29
2022/08/02 03:14:42;;;;;;;3.35;2.38;;;22.00;91.30;;;;;;5025897;28;20204;-29
2022/08/02 03:17:11;;;;;;;5.45;2.80;;;21.90;91.30;;;;;;5025006;28;20315;-29
2022/08/02 03:19:39;;;;;;;4.72;2.65;;;21.90;91.20;;;;;;5014697;28;20207;-29
2022/08/02 03:22:10;;;;;;;3.40;2.35;;;21.90;91.30;;;;;;5008245;28;20241;-30
2022/08/02 03:24:40;;;;;;;4.05;2.38;;;21.90;91.30;;;;;;5009431;28;20225;-30
2022/08/02 03:27:07;;;;;;;4.30;2.70;;;21.80;91.30;;;;;;5008107;28;20202;-30
2022/08/02 03:29:35;;;;;;;3.38;2.35;;;21.80;91.30;;;;;;5021471;28;20204;-31
2022/08/02 03:32:02;;;;;;;4.88;2.70;;;21.80;91.30;;;;;;5014956;28;20291;-30
2022/08/02 03:34:30;;;;;;;5.70;2.92;;;21.80;91.30;;;;;;5020331;28;20213;-30
2022/08/02 03:36:59;;;;;;;5.00;2.90;;;21.70;91.30;;;;;;5027767;28;20208;-30
2022/08/02 03:39:26;;;;;;;3.30;2.40;;;21.70;91.40;;;;;;5024868;28;20201;-30
2022/08/02 03:41:54;;;;;;;3.30;2.90;;;21.70;91.40;;;;;;5024644;28;20240;-30
2022/08/02 03:44:22;;;;;;;3.90;2.42;;;21.70;91.40;;;;;;5009364;28;21177;-30
2022/08/02 03:46:53;;;;;;;3.03;2.53;;;21.60;91.40;;;;;;5022453;28;20240;-30
2022/08/02 03:49:23;;;;;;;4.47;2.53;;;21.60;91.40;;;;;;5007207;28;20209;-29
2022/08/02 03:51:51;;;;;;;2.70;2.50;;;21.60;91.40;;;;;;5015540;28;20229;-29
2022/08/02 03:54:24;;;;;;;3.40;2.67;;;21.60;91.50;;;;;;5026736;28;20221;-29
2022/08/02 03:57:03;;;;;;;3.17;2.58;;;21.50;91.40;;;;;;5025261;28;20767;-29
2022/08/02 03:59:48;;;;;;;4.10;2.67;;;21.50;91.50;;;;;;5019458;28;20302;-29
2022/08/02 04:02:15;;;;;;;3.53;2.85;;;21.50;91.80;;;;;;5022901;28;20209;-29
2022/08/02 04:04:42;;;;;;;3.10;2.55;;;21.40;91.50;;;;;;5029920;28;20243;-29
2022/08/02 04:07:10;;;;;;;6.40;2.63;;;21.40;91.60;;;;;;5019086;28;20215;-29
2022/08/02 04:09:39;;;;;;;2.92;2.60;;;21.40;91.60;;;;;;5018634;28;20194;-29
2022/08/02 04:12:07;;;;;;;3.90;2.50;;;21.30;91.60;;;;;;5011054;28;20259;-29
2022/08/02 04:14:34;;;;;;;5.05;2.30;;;21.30;91.60;;;;;;5015489;28;20254;-29
2022/08/02 04:17:09;;;;;;;2.63;2.35;;;21.30;91.60;;;;;;5019132;28;20608;-29
2022/08/02 04:19:59;;;;;;;4.18;2.78;;;21.30;91.70;;;;;;5019360;28;20213;-29
2022/08/02 04:22:42;;;;;;;3.65;2.38;;;21.30;91.90;;;;;;5028455;28;20779;-29
2022/08/02 04:25:12;;;;;;;3.78;2.92;;;21.30;91.80;;;;;;5025242;28;20212;-29
2022/08/02 04:27:45;;;;;;;4.75;2.85;;;21.30;91.80;;;;;;5028222;28;20244;-29
2022/08/02 04:30:35;;;;;;;5.50;3.00;;;21.30;91.90;;;;;;5023279;28;20227;-30
2022/08/02 04:33:10;;;;;;;6.45;2.80;;;21.30;91.90;;;;;;5017320;28;20296;-30
2022/08/02 04:35:37;;;;;;;4.18;2.35;;;21.30;92.00;;;;;;5017350;28;20746;-29
2022/08/02 04:38:05;;;;;;;3.60;2.30;;;21.40;92.00;;;;;;5023806;28;20604;-29
2022/08/02 04:40:37;;;;;;;2.72;2.47;;;21.40;92.00;;;;;;5015984;28;20204;-29
2022/08/02 04:43:04;;;;;;;3.50;2.58;;;21.40;92.10;;;;;;5018812;28;20596;-29
2022/08/02 04:45:32;;;;;;;3.25;2.67;;;21.50;92.10;;;;;;5023650;28;20220;-29
2022/08/02 04:47:59;;;;;;;3.50;2.85;;;21.50;92.20;;;;;;5019273;28;20232;-29
2022/08/02 04:50:34;;;;;;;3.60;2.80;;;21.50;92.20;;;;;;5026772;28;20228;-30
2022/08/02 04:53:06;;;;;;;3.00;2.70;;;21.60;92.30;;;;;;5020126;28;20220;-29
2022/08/02 04:55:35;;;;;;;3.67;2.60;;;21.60;92.30;;;;;;5026845;28;20213;-29
2022/08/02 04:58:02;;;;;;;3.42;2.83;;;21.70;92.40;;;;;;5029843;28;20193;-29
2022/08/02 05:00:49;;;;;;;3.40;2.70;;;21.70;92.50;;;;;;5025610;28;20200;-29
2022/08/02 05:03:19;;;;;;;3.95;2.60;;;21.70;92.50;;;;;;5017556;28;20217;-29
2022/08/02 05:05:48;;;;;;;5.05;2.70;;;21.80;92.60;;;;;;5019926;28;20752;-25
2022/08/02 05:08:18;;;;;;;4.60;2.92;;;21.90;92.70;;;;;;5011274;28;20301;-25
2022/08/02 05:10:48;;;;;;;7.78;3.10;;;21.90;92.80;;;;;;5019757;28;20542;-25
2022/08/02 05:13:15;;;;;;;6.30;2.90;;;22.00;92.80;;;;;;5015774;28;20316;-25
2022/08/02 05:15:43;;;;;;;3.42;2.80;;;22.00;92.80;;;;;;5028517;28;20251;-29
2022/08/02 05:18:11;;;;;;;5.10;3.35;;;22.10;92.80;;;;;;5026199;28;20728;-24
2022/08/02 05:20:39;;;;;;;4.40;3.25;;;22.10;92.90;;;;;;5016532;28;20566;-25
2022/08/02 05:23:06;;;;;;;3.60;3.00;;;22.20;92.90;;;;;;5010630;28;20558;-25
2022/08/02 05:25:33;;;;;;;4.05;2.70;;;22.20;93.00;;;;;;5015886;28;20562;-25
2022/08/02 05:28:03;;;;;;;3.78;2.90;;;22.20;93.00;;;;;;5014531;28;20334;-25
2022/08/02 05:30:37;;;;;;;3.85;3.05;;;22.20;93.10;;;;;;5012281;28;20213;-25
2022/08/02 05:33:06;;;;;;;6.13;3.15;;;22.30;93.10;;;;;;5017080;28;20291;-25
2022/08/02 05:35:34;;;;;;;5.07;2.97;;;22.30;93.10;;;;;;5022884;28;20251;-25
2022/08/02 05:38:03;;;;;;;3.83;2.85;;;22.30;93.20;;;;;;5024826;28;20237;-25
2022/08/02 05:40:36;;;;;;;6.07;3.75;;;22.30;93.30;;;;;;5011617;28;20208;-25
2022/08/02 05:43:23;;;;;;;4.88;3.38;;;22.30;93.20;;;;;;5025270;28;20208;-25
2022/08/02 05:45:52;;;;;;;4.65;3.65;;;22.30;93.30;;;;;;5009878;28;20653;-25
2022/08/02 05:48:19;;;;;;;3.45;3.15;;;22.30;93.30;;;;;;5017686;28;20197;-26
2022/08/02 05:50:52;;;;;;;4.53;3.47;;;22.30;93.30;;;;;;5013864;28;20351;-25
2022/08/02 05:54:06;;;;;;;5.60;3.60;;;22.30;93.40;;;;;;5019051;28;20577;-25
2022/08/02 05:56:44;;;;;;;4.28;3.30;;;22.40;93.60;;;;;;5016902;28;20945;-25
2022/08/02 05:59:19;;;;;;;4.63;3.28;;;22.40;93.60;;;;;;5016816;28;20237;-25
2022/08/02 06:01:52;;;;;;;4.88;3.50;;;22.40;93.50;;;;;;5027670;28;20749;-25
2022/08/02 06:04:25;;;;;;;4.75;3.30;;;22.40;93.50;;;;;;5010469;28;20632;-25
2022/08/02 06:07:01;;;;;;;5.53;3.67;;;22.40;93.60;;;;;;5014419;28;20235;-26
2022/08/02 06:09:33;;;;;;;4.45;4.03;;;22.40;93.50;;;;;;5013258;28;20739;-25
2022/08/02 06:12:03;;;;;;;5.68;3.40;;;22.40;93.60;;;;;;5020052;28;20778;-26
2022/08/02 06:14:33;;;;;;;4.95;3.60;;;22.40;93.60;;;;;;5029326;28;20299;-26
2022/08/02 06:17:04;;;;;;;4.15;3.30;;;22.40;93.60;;;;;;5010234;28;20771;-26
2022/08/02 06:19:32;;;;;;;5.28;3.55;;;22.40;93.70;;;;;;5009203;28;20499;-26
2022/08/02 06:22:19;;;;;;;4.47;3.70;;;22.50;93.70;;;;;;5025458;28;20576;-25
2022/08/02 06:25:07;;;;;;;6.28;3.45;;;22.50;93.70;;;;;;5010185;28;20586;-25
2022/08/02 06:27:55;;;;;;;4.95;3.80;;;22.50;93.80;;;;;;5015943;28;20213;-25
2022/08/02 06:30:23;;;;;;;4.45;3.45;;;22.50;93.90;;;;;;5018097;28;20197;-25
2022/08/02 06:32:51;;;;;;;4.50;3.47;;;22.50;93.90;;;;;;5028291;28;20242;-25
2022/08/02 06:35:19;;;;;;;4.38;3.50;;;22.50;93.90;;;;;;5027612;28;20216;-26
2022/08/02 06:37:58;;;;;;;6.18;4.20;;;22.60;93.90;;;;;;5017151;28;20265;-30
2022/08/02 06:40:50;;;;;;;5.57;3.30;;;22.60;94.10;;;;;;5017625;28;20308;-30
2022/08/02 06:43:40;;;;;;;4.78;3.78;;;22.70;94.10;;;;;;5008686;28;20252;-30
2022/08/02 06:46:07;;;;;;;6.63;3.38;;;22.70;94.10;;;;;;5016720;28;20255;-30
2022/08/02 06:48:56;;;;;;;6.35;3.42;;;22.70;94.40;;;;;;5009308;28;20684;-30
2022/08/02 06:51:23;;;;;;;5.53;3.85;;;22.80;94.20;;;;;;5019694;28;20259;-30
2022/08/02 06:53:53;;;;;;;4.15;3.25;;;22.90;94.30;;;;;;5025660;28;20204;-30
2022/08/02 06:56:20;;;;;;;4.25;3.60;;;22.90;94.20;;;;;;5011649;28;20204;-30
2022/08/02 06:58:52;;;;;;;3.60;3.03;;;23.00;94.20;;;;;;5015861;28;20719;-30
2022/08/02 07:01:22;;;;;;;3.63;3.10;;;23.00;94.30;;;;;;5023203;28;20217;-30
2022/08/02 07:03:53;;;;;;;4.22;3.63;;;23.10;94.30;;;;;;5024330;28;20292;-26
2022/08/02 07:06:24;;;;;;;4.57;3.17;;;23.20;94.30;;;;;;5008128;28;20232;-25
2022/08/02 07:08:52;;;;;;;7.43;3.17;;;23.20;94.30;;;;;;5009834;28;20293;-26
2022/08/02 07:11:39;;;;;;;4.70;3.63;;;23.30;94.30;;;;;;5009372;28;20554;-26
2022/08/02 07:14:11;;;;;;;4.97;3.10;;;23.30;94.20;;;;;;5008927;28;20304;-25
2022/08/02 07:16:41;;;;;;;5.47;3.10;;;23.40;94.20;;;;;;5013183;28;20673;-25
2022/08/02 07:19:09;;;;;;;3.90;2.83;;;23.40;94.20;;;;;;5017734;28;20208;-26
2022/08/02 07:21:36;;;;;;;3.72;3.30;;;23.50;94.20;;;;;;5008339;28;20774;-25
2022/08/02 07:24:26;;;;;;;3.13;2.25;;;23.50;94.10;;;;;;5014128;28;20686;-26
2022/08/02 07:26:53;;;;;;;4.93;2.47;;;23.50;94.10;;;;;;5017270;28;20561;-26
2022/08/02 07:29:38;;;;;;;7.50;2.50;;;23.50;94.10;;;;;;5022867;28;20208;-26
2022/08/02 07:32:22;;;;;;;4.63;2.63;;;23.50;94.10;;;;;;5024338;28;20236;-25
2022/08/02 07:34:52;;;;;;;2.92;2.60;;;23.60;94.20;;;;;;5015017;28;20202;-25
2022/08/02 07:37:25;;;;;;;7.38;2.40;;;23.60;94.20;;;;;;5014105;28;20549;-26
2022/08/02 07:40:13;;;;;;;3.22;2.92;;;23.60;94.10;;;;;;5012133;28;20313;-26
2022/08/02 07:42:51;;;;;;;2.72;1.98;;;23.70;94.10;;;;;;5013785;28;20216;-26
2022/08/02 07:45:23;;;;;;;3.97;2.75;;;23.70;94.10;;;;;;5027318;28;20201;-26
2022/08/02 07:47:51;;;;;;;4.57;2.90;;;23.80;94.20;;;;;;5013857;28;20296;-26
2022/08/02 07:50:20;;;;;;;3.85;2.33;;;23.90;94.30;;;;;;5019416;28;20227;-26
2022/08/02 07:52:50;;;;;;;2.70;2.50;;;23.90;94.30;;;;;;5025762;28;20326;-26
2022/08/02 07:55:24;;;;;;;5.35;2.60;;;23.90;94.30;;;;;;5031856;28;20205;-26
2022/08/02 07:58:08;;;;;;;2.53;2.30;;;24.00;94.40;;;;;;5027416;28;20204;-31
2022/08/02 08:00:42;;;;;;;2.10;1.85;;;24.00;94.40;;;;;;5031035;28;20232;-31
2022/08/02 08:03:10;;;;;;;2.78;2.33;;;24.10;94.40;;;;;;5018722;28;20198;-31
2022/08/02 08:05:37;;;;;;;3.33;2.28;;;24.10;94.30;;;;;;5021840;28;20267;-31
2022/08/02 08:08:04;;;;;;;2.95;1.92;;;24.10;94.30;;;;;;5018573;28;20307;-31
2022/08/02 08:10:32;;;;;;;5.05;2.22;;;24.20;94.30;;;;;;5017168;28;20221;-31
2022/08/02 08:12:59;;;;;;;1.95;1.70;;;24.10;94.20;;;;;;5030419;28;20594;-31
2022/08/02 08:15:26;;;;;;;2.90;1.90;;;24.10;94.10;;;;;;5031547;28;20228;-32
2022/08/02 08:17:54;;;;;;;2.85;1.60;;;24.20;94.00;;;;;;5022176;28;20204;-32
2022/08/02 08:20:23;;;;;;;1.75;1.40;;;24.10;93.90;;;;;;5028951;28;20639;-32
2022/08/02 08:22:51;;;;;;;3.70;2.08;;;24.20;94.00;;;;;;5025745;28;20259;-32
2022/08/02 08:25:19;;;;;;;1.75;1.63;;;24.10;93.90;;;;;;5021233;28;20227;-31
2022/08/02 08:27:51;;;;;;;1.83;1.40;;;24.20;93.90;;;;;;5028509;28;20224;-32
2022/08/02 08:30:22;;;;;;;1.77;1.60;;;24.20;93.90;;;;;;5024412;28;20204;-26
2022/08/02 08:32:49;;;;;;;1.60;1.50;;;24.20;93.90;;;;;;5009371;28;20231;-26
2022/08/02 08:35:16;;;;;;;2.53;1.30;;;24.30;94.00;;;;;;5010832;28;20637;-26
2022/08/02 08:37:44;;;;;;;3.72;1.75;;;24.30;94.30;;;;;;5038005;28;20319;-26
2022/08/02 08:40:14;;;;;;;4.18;2.00;;;24.30;94.00;;;;;;5035934;28;20205;-25
2022/08/02 08:42:50;;;;;;;2.47;1.67;;;24.30;94.00;;;;;;5010788;28;20539;-26
2022/08/02 08:45:18;;;;;;;5.93;1.90;;;24.40;94.00;;;;;;5015810;28;20308;-26
2022/08/02 08:47:55;;;;;;;2.53;1.50;;;24.40;94.00;;;;;;5029347;28;20287;-25
2022/08/02 08:50:24;;;;;;;2.28;1.30;;;24.40;94.00;;;;;;5014807;28;20208;-26
2022/08/02 08:53:04;;;;;;;2.00;1.33;;;24.50;94.00;;;;;;5011543;28;20236;-26
2022/08/02 08:55:36;;;;;;;1.75;1.50;;;24.50;94.10;;;;;;5014058;28;20304;-26
2022/08/02 08:58:04;;;;;;;3.72;1.60;;;24.50;94.10;;;;;;5022557;28;20432;-26
2022/08/02 09:00:34;;;;;;;2.15;1.30;;;24.60;94.10;;;;;;5016616;28;20208;-26
2022/08/02 09:03:06;;;;;;;2.95;1.42;;;24.70;94.20;;;;;;5027933;28;20221;-26
2022/08/02 09:05:34;;;;;;;4.30;1.60;;;24.70;94.20;;;;;;5028437;28;20209;-26
2022/08/02 09:08:05;;;;;;;2.45;1.52;;;24.80;94.20;;;;;;5021115;28;20196;-25
2022/08/02 09:10:46;;;;;;;3.40;1.73;;;24.90;94.20;;;;;;5016345;28;20225;-31
2022/08/02 09:13:23;;;;;;;3.25;1.58;;;24.90;94.20;;;;;;5020631;28;20267;-31
2022/08/02 09:16:11;;;;;;;3.60;1.63;;;25.00;94.60;;;;;;5010142;28;20189;-31
2022/08/02 09:18:46;;;;;;;1.48;1.38;;;25.00;94.30;;;;;;5022201;28;20229;-31
2022/08/02 09:21:15;;;;;;;2.47;1.45;;;25.10;94.30;;;;;;5026281;28;20251;-31
2022/08/02 09:23:51;;;;;;;2.95;1.50;;;25.20;94.40;;;;;;5019616;28;20278;-31
2022/08/02 09:26:21;;;;;;;2.78;1.80;;;25.30;94.40;;;;;;5017210;28;20296;-32
2022/08/02 09:28:51;;;;;;;13.20;2.50;;;25.40;94.50;;;;;;5012526;28;20216;-30
2022/08/02 09:31:21;;;;;;;4.43;2.05;;;25.40;94.40;;;;;;5022329;28;20208;-31
2022/08/02 09:33:57;;;;;;;6.03;1.95;;;25.50;94.40;;;;;;5009442;28;20229;-31
2022/08/02 09:36:46;;;;;;;2.63;1.98;;;25.60;94.50;;;;;;5009790;28;20304;-31
2022/08/02 09:39:15;;;;;;;3.38;2.17;;;25.70;94.30;;;;;;5015495;28;20240;-31
2022/08/02 09:41:47;;;;;;;3.05;1.95;;;25.70;94.30;;;;;;5019755;28;20245;-32
2022/08/02 09:44:20;;;;;;;4.45;1.67;;;25.70;94.30;;;;;;5022982;28;20218;-32
2022/08/02 09:46:47;;;;;;;5.53;1.67;;;25.80;94.40;;;;;;5029799;28;20205;-31
2022/08/02 09:49:18;;;;;;;2.90;1.67;;;25.90;94.30;;;;;;5012761;28;20194;-31
2022/08/02 09:51:46;;;;;;;12.43;1.95;;;25.80;94.30;;;;;;5019462;28;20243;-31
2022/08/02 09:54:26;;;;;;;4.95;1.90;;;25.90;94.30;;;;;;5010068;28;20336;-32
2022/08/02 09:57:00;;;;;;;1.95;1.63;;;26.00;94.50;;;;;;5012397;28;20213;-31
2022/08/02 09:59:30;;;;;;;2.25;1.58;;;26.00;94.50;;;;;;5037717;28;20734;-31
2022/08/02 10:01:58;;;;;;;5.30;1.67;;;26.10;94.40;;;;;;5012995;28;20264;-32
2022/08/02 10:04:32;;;;;;;3.50;1.70;;;26.10;94.40;;;;;;5020621;28;20612;-31
2022/08/02 10:07:21;;;;;;;2.80;1.30;;;26.10;94.30;;;;;;5028569;28;20208;-31
2022/08/02 10:09:50;;;;;;;2.05;1.50;;;26.10;94.30;;;;;;5028139;28;20213;-31
2022/08/02 10:12:19;;;;;;;3.85;1.48;;;26.20;94.30;;;;;;5012997;28;20279;-31
2022/08/02 10:14:50;;;;;;;5.38;1.52;;;26.20;94.30;;;;;;5023681;28;20250;-32
2022/08/02 10:17:24;;;;;;;4.38;1.40;;;26.20;94.20;;;;;;5035680;28;20660;-31
2022/08/02 10:19:51;;;;;;;1.35;1.20;;;26.30;94.30;;;;;;5027112;28;20270;-32
2022/08/02 10:22:31;;;;;;;15.23;2.30;;;26.40;94.30;;;;;;5010151;28;20205;-31
2022/08/02 10:25:02;;;;;;;5.15;1.60;;;26.40;94.10;;;;;;5009114;28;20643;-32
2022/08/02 10:27:31;;;;;;;4.00;1.63;;;26.40;94.20;;;;;;5020117;28;20291;-31
2022/08/02 10:30:19;;;;;;;3.60;1.60;;;26.50;94.20;;;;;;5027614;28;20316;-31
2022/08/02 10:32:48;;;;;;;3.17;1.42;;;26.50;94.20;;;;;;5026230;28;20224;-31
2022/08/02 10:35:19;;;;;;;4.95;1.92;;;26.60;94.20;;;;;;5024562;28;20247;-31
2022/08/02 10:38:02;;;;;;;2.75;1.40;;;26.70;94.30;;;;;;5019090;28;20230;-32
2022/08/02 10:40:49;;;;;;;1.75;1.30;;;26.70;94.20;;;;;;5024183;28;20228;-31
2022/08/02 10:43:31;;;;;;;4.53;1.08;;;26.80;94.10;;;;;;5028236;28;20207;-31
2022/08/02 10:46:26;;;;;;;1.90;1.00;;;26.90;94.10;;;;;;5011423;28;21056;-32
2022/08/02 10:49:17;;;;;;;2.88;0.70;;;27.00;94.20;;;;;;5011517;28;20655;-39
2022/08/02 10:52:06;;;;;;;4.63;1.23;;;27.10;94.10;;;;;;5017118;28;20215;-26
2022/08/02 10:54:35;;;;;;;4.15;1.27;;;27.10;94.00;;;;;;5025975;28;20228;-27
2022/08/02 10:57:14;;;;;;;2.25;1.10;;;27.20;93.80;;;;;;5016282;28;20315;-26
2022/08/02 10:59:42;;;;;;;2.85;0.93;;;27.20;93.40;;;;;;5022005;28;20248;-26
2022/08/02 11:02:10;;;;;;;1.95;1.00;;;27.30;93.60;;;;;;5014370;28;20536;-25
2022/08/02 11:04:40;;;;;;;3.33;1.08;;;27.30;93.40;;;;;;5006918;28;20590;-30
2022/08/02 11:07:20;;;;;;;1.35;0.93;;;27.30;93.40;;;;;;5022317;28;20205;-31
2022/08/02 11:09:52;;;;;;;3.17;1.30;;;27.40;93.50;;;;;;5011655;28;20217;-31
2022/08/02 11:12:20;;;;;;;6.65;1.27;;;27.40;93.60;;;;;;5016926;28;20710;-31
2022/08/02 11:15:04;;;;;;;2.92;1.20;;;27.50;93.70;;;;;;5024033;28;20247;-31
2022/08/02 11:17:57;;;;;;;6.00;1.05;;;27.60;93.70;;;;;;5018861;28;20689;-31
2022/08/02 11:20:28;;;;;;;2.25;0.93;;;27.70;93.60;;;;;;5023034;28;20229;-30
2022/08/02 11:23:33;;;;;;;2.22;1.13;;;27.70;93.60;;;;;;5024092;28;20205;-31
2022/08/02 11:26:29;;;;;;;1.17;0.75;;;27.80;93.50;;;;;;5023035;28;20636;-30
2022/08/02 11:29:04;;;;;;;2.90;1.08;;;27.90;93.60;;;;;;5017976;28;20200;-31
2022/08/02 11:31:41;;;;;;;2.80;1.10;;;27.90;93.50;;;;;;5010447;28;20211;-31
2022/08/02 11:34:11;;;;;;;1.05;0.77;;;27.90;93.60;;;;;;5016011;28;20582;-31
2022/08/02 11:36:58;;;;;;;1.60;0.93;;;28.00;93.40;;;;;;5018456;28;20822;-25
2022/08/02 11:39:25;;;;;;;3.55;1.10;;;28.00;93.50;;;;;;5020921;28;20219;-30
2022/08/02 11:41:59;;;;;;;0.90;0.90;;;28.10;93.50;;;;;;5007650;28;20197;-31
2022/08/02 11:44:43;;;;;;;1.65;0.88;;;28.10;93.50;;;;;;5008640;28;20237;-30
2022/08/02 11:47:11;;;;;;;7.68;2.22;;;28.20;93.30;;;;;;5015254;28;20746;-30
2022/08/02 11:49:38;;;;;;;2.45;1.15;;;28.20;93.30;;;;;;5011406;28;20308;-31
2022/08/02 11:52:09;;;;;;;2.03;0.90;;;28.20;93.10;;;;;;5009957;28;20204;-31
2022/08/02 11:54:42;;;;;;;4.43;0.93;;;28.30;92.90;;;;;;5027466;28;20248;-31
2022/08/02 11:57:22;;;;;;;4.78;1.00;;;28.30;92.90;;;;;;5026351;28;20640;-30
2022/08/02 11:59:53;;;;;;;1.67;0.82;;;28.30;92.90;;;;;;5010083;28;20282;-30
2022/08/02 12:02:28;;;;;;;6.03;1.00;;;28.30;92.80;;;;;;5009552;28;20841;-31
2022/08/02 12:05:01;;;;;;;3.03;1.27;;;28.40;92.90;;;;;;5006287;28;20205;-36
2022/08/02 12:07:32;;;;;;;1.73;1.00;;;28.40;92.90;;;;;;5012156;28;20197;-31
2022/08/02 12:10:08;;;;;;;3.63;0.88;;;28.40;92.80;;;;;;5027315;28;20205;-30
2022/08/02 12:12:58;;;;;;;7.45;1.40;;;28.40;92.40;;;;;;5024506;28;20207;-31
2022/08/02 12:15:45;;;;;;;2.10;0.90;;;28.40;92.20;;;;;;5006417;28;20575;-31
2022/08/02 12:21:24;;;;;;;4.13;1.20;;;28.30;92.20;;;;;;5024415;28;20206;-31
2022/08/02 12:23:53;;;;;;;2.25;1.10;;;28.40;92.40;;;;;;5014582;28;20259;-31
2022/08/02 12:26:29;;;;;;;4.40;1.20;;;28.40;92.40;;;;;;5022180;28;20201;-31
2022/08/02 12:28:57;;;;;;;1.98;0.98;;;28.40;92.10;;;;;;5021108;28;20266;-31
2022/08/02 12:31:44;;;;;;;1.42;0.90;;;28.40;92.30;;;;;;5010877;28;20213;-31
2022/08/02 12:34:26;;;;;;;0.98;0.82;;;28.50;92.40;;;;;;5014307;28;20224;-31
2022/08/02 12:37:04;;;;;;;2.47;1.33;;;28.50;92.60;;;;;;5016318;28;20204;-31
2022/08/02 12:39:41;;;;;;;2.58;1.42;;;28.60;92.20;;;;;;5011808;28;20201;-30
2022/08/02 12:42:10;;;;;;;4.25;1.15;;;28.60;91.40;;;;;;5011630;28;20723;-30
2022/08/02 12:44:56;;;;;;;2.78;1.00;;;28.60;91.70;;;;;;5016945;28;20209;-30
2022/08/02 12:47:24;;;;;;;2.63;1.13;;;28.70;91.80;;;;;;5024315;28;20212;-30
2022/08/02 12:50:10;;;;;;;0.80;0.80;;;28.70;91.90;;;;;;5013532;28;20206;-30
2022/08/02 12:52:38;;;;;;;4.57;1.00;;;28.80;92.00;;;;;;5016977;28;20747;-31
2022/08/02 12:55:24;;;;;;;2.53;0.95;;;28.80;91.80;;;;;;5017539;28;20571;-31
2022/08/02 12:58:11;;;;;;;0.88;0.88;;;28.80;91.80;;;;;;5010581;28;20687;-30
2022/08/02 13:00:39;;;;;;;1.65;1.20;;;28.80;91.70;;;;;;5010777;28;20309;-31
2022/08/02 13:03:07;;;;;;;20.23;1.88;;;28.90;91.20;;;;;;5010367;28;21182;-30
2022/08/02 13:05:58;;;;;;;3.95;1.00;;;28.90;91.20;;;;;;5012967;28;20555;-31
2022/08/02 13:08:46;;;;;;;8.15;1.27;;;28.90;90.90;;;;;;5010947;28;20211;-31
2022/08/02 13:11:16;;;;;;;0.80;0.80;;;28.90;91.10;;;;;;4993308;28;20606;-31
2022/08/02 13:13:47;;;;;;;1.63;0.77;;;28.90;91.60;;;;;;5019317;28;20209;-31
2022/08/02 13:16:15;;;;;;;2.35;0.68;;;29.00;91.50;;;;;;5011814;28;20671;-31
2022/08/02 13:18:44;;;;;;;1.88;1.02;;;29.00;91.40;;;;;;5026270;28;20255;-31
2022/08/02 13:21:14;;;;;;;1.40;0.80;;;29.10;91.40;;;;;;5029621;28;20209;-31